Tiptree, United Kingdom
Current Conditions -  °F | °C
As of 8:20 PM on Wednesday 28 Jan 2015 (Local Time) from EGMC Reporting Station
Clear Clear  
Wind Chill: 30°   Ceiling: Unl
Heat Index: 39°   Visibility: 6mi
Dew Point: 25°   Wind: 16mph
Humidity: 56%   Direction: 250°WSW
Pressure: 29.56"   Gusts: NA
Location:  51.81°N, 0.75°E
Report Text: EGMC 282020Z 25014KT CAVOK 04/M04 Q1001
Loading
Personal Weather Stations






























Interactive Weather Map New forecast layout! Learn more

10-Day Weather Forecast

Advertisements
Track Severe Weather on mobile